createdAt,value
2023-02-08T00:02:07.704Z,5.72
2023-02-08T00:04:35.096Z,5.57
2023-02-08T00:07:02.508Z,5.40
2023-02-08T00:09:31.225Z,6.20
2023-02-08T00:11:58.599Z,6.47
2023-02-08T00:14:26.075Z,6.57
2023-02-08T00:16:53.471Z,6.68
2023-02-08T00:19:20.899Z,6.50
2023-02-08T00:21:48.289Z,6.72
2023-02-08T00:24:15.654Z,6.30
2023-02-08T00:26:44.622Z,6.30
2023-02-08T00:29:12.093Z,5.80
2023-02-08T00:31:39.732Z,6.50
2023-02-08T00:34:07.148Z,6.47
2023-02-08T00:36:34.555Z,6.38
2023-02-08T00:39:01.936Z,6.65
2023-02-08T00:41:29.332Z,6.80
2023-02-08T00:43:58.751Z,6.18
2023-02-08T00:46:26.249Z,6.63
2023-02-08T00:48:54.284Z,6.72
2023-02-08T00:51:21.683Z,6.78
2023-02-08T00:53:49.049Z,6.68
2023-02-08T00:56:16.658Z,6.68
2023-02-08T00:58:44.181Z,6.60
2023-02-08T01:01:12.905Z,6.45
2023-02-08T01:03:41.061Z,6.80
2023-02-08T01:06:10.065Z,6.18
2023-02-08T01:08:37.481Z,6.78
2023-02-08T01:11:06.366Z,6.43
2023-02-08T01:13:33.869Z,6.65
2023-02-08T01:16:09.077Z,6.38
2023-02-08T01:18:37.917Z,6.45
2023-02-08T01:21:07.198Z,6.15
2023-02-08T01:23:34.641Z,6.70
2023-02-08T01:26:02.030Z,6.38
2023-02-08T01:28:29.463Z,7.13
2023-02-08T01:30:56.873Z,6.25
2023-02-08T01:33:24.250Z,6.75
2023-02-08T01:35:53.233Z,6.47
2023-02-08T01:38:20.708Z,6.38
2023-02-08T01:40:48.135Z,6.50
2023-02-08T01:43:21.014Z,6.22
2023-02-08T01:45:48.430Z,6.55
2023-02-08T01:48:17.790Z,7.05
2023-02-08T01:50:46.365Z,6.97
2023-02-08T01:53:15.035Z,6.75
2023-02-08T01:55:45.669Z,7.20
2023-02-08T01:58:13.100Z,7.20
2023-02-08T02:00:40.768Z,7.47
2023-02-08T02:03:08.357Z,7.43
2023-02-08T02:05:39.145Z,7.32
2023-02-08T02:08:06.810Z,7.68
2023-02-08T02:10:36.594Z,7.95
2023-02-08T02:13:05.481Z,7.70
2023-02-08T02:15:32.910Z,8.43
2023-02-08T02:18:00.312Z,7.25
2023-02-08T02:20:34.005Z,7.88
2023-02-08T02:23:22.257Z,8.20
2023-02-08T02:26:23.827Z,7.43
2023-02-08T02:29:12.344Z,7.20
2023-02-08T02:32:01.662Z,7.32
2023-02-08T02:34:32.915Z,8.13
2023-02-08T02:37:03.753Z,7.72
2023-02-08T02:39:35.061Z,7.22
2023-02-08T02:42:24.078Z,7.25
2023-02-08T02:44:55.257Z,7.50
2023-02-08T02:47:29.059Z,7.40
2023-02-08T02:49:57.849Z,7.10
2023-02-08T02:52:27.738Z,7.90
2023-02-08T02:54:56.418Z,7.88
2023-02-08T02:57:26.886Z,7.25
2023-02-08T02:59:54.287Z,7.15
2023-02-08T03:02:21.690Z,7.85
2023-02-08T03:04:52.411Z,7.13
2023-02-08T03:07:27.126Z,7.00
2023-02-08T03:09:59.708Z,6.88
2023-02-08T03:12:32.013Z,7.20
2023-02-08T03:15:01.476Z,7.38
2023-02-08T03:17:36.553Z,6.78
2023-02-08T03:20:10.133Z,7.13
2023-02-08T03:22:43.953Z,7.40
2023-02-08T03:25:13.513Z,6.78
2023-02-08T03:27:42.801Z,5.20
2023-02-08T03:30:11.636Z,6.57
2023-02-08T03:32:41.717Z,7.05
2023-02-08T03:35:12.082Z,6.53
2023-02-08T03:37:41.120Z,6.18
2023-02-08T03:40:11.370Z,6.88
2023-02-08T03:45:08.494Z,6.78
2023-02-08T03:47:37.053Z,6.25
2023-02-08T03:50:05.878Z,7.05
2023-02-08T03:52:34.592Z,6.70
2023-02-08T03:55:02.832Z,7.00
2023-02-08T03:57:30.660Z,6.80
2023-02-08T03:59:59.469Z,6.35
2023-02-08T04:02:27.984Z,6.82
2023-02-08T04:04:55.392Z,6.72
2023-02-08T04:07:22.874Z,6.15
2023-02-08T04:09:51.558Z,5.95
2023-02-08T04:12:18.967Z,6.90
2023-02-08T04:14:46.338Z,6.53
2023-02-08T04:17:13.726Z,6.70
2023-02-08T04:19:41.308Z,6.80
2023-02-08T04:22:08.692Z,6.80
2023-02-08T04:24:36.064Z,6.60
2023-02-08T04:27:06.086Z,6.05
2023-02-08T04:32:00.910Z,6.38
2023-02-08T04:34:28.296Z,6.47
2023-02-08T04:36:55.703Z,6.60
2023-02-08T04:39:23.065Z,6.63
2023-02-08T04:41:50.442Z,6.85
2023-02-08T04:44:19.179Z,6.80
2023-02-08T04:46:46.576Z,6.63
2023-02-08T04:49:13.940Z,6.50
2023-02-08T04:51:41.346Z,6.97
2023-02-08T04:54:08.706Z,6.50
2023-02-08T04:56:36.682Z,6.75
2023-02-08T04:59:04.157Z,6.95
2023-02-08T05:01:32.975Z,6.90
2023-02-08T05:04:00.363Z,7.00
2023-02-08T05:06:27.735Z,6.95
2023-02-08T05:08:55.124Z,7.05
2023-02-08T05:11:22.643Z,6.32
2023-02-08T05:13:50.070Z,6.90
2023-02-08T05:16:17.509Z,6.47
2023-02-08T05:18:46.276Z,6.80
2023-02-08T05:21:13.673Z,7.55
2023-02-08T05:23:41.066Z,6.90
2023-02-08T05:26:08.707Z,6.78
2023-02-08T05:28:36.114Z,6.93
2023-02-08T05:31:10.733Z,6.80
2023-02-08T05:33:38.165Z,7.43
2023-02-08T05:36:07.416Z,7.70
2023-02-08T05:38:34.817Z,7.13
2023-02-08T05:41:02.202Z,7.00
2023-02-08T05:43:29.593Z,7.05
2023-02-08T05:45:56.950Z,7.15
2023-02-08T05:48:24.341Z,6.78
2023-02-08T05:50:51.726Z,6.68
2023-02-08T05:53:20.406Z,7.22
2023-02-08T05:55:48.785Z,6.57
2023-02-08T05:58:16.188Z,7.22
2023-02-08T06:00:43.712Z,7.15
2023-02-08T06:03:11.242Z,6.72
2023-02-08T06:05:38.821Z,6.75
2023-02-08T06:08:06.253Z,6.80
2023-02-08T06:10:35.081Z,6.60
2023-02-08T06:13:02.485Z,6.88
2023-02-08T06:15:29.855Z,7.43
2023-02-08T06:17:57.308Z,6.65
2023-02-08T06:20:24.706Z,6.90
2023-02-08T06:22:52.094Z,6.60
2023-02-08T06:25:19.462Z,7.32
2023-02-08T06:27:48.328Z,6.60
2023-02-08T06:30:15.744Z,8.23
2023-02-08T06:32:43.147Z,8.32
2023-02-08T06:35:10.625Z,7.95
2023-02-08T06:37:38.023Z,8.48
2023-02-08T06:40:05.901Z,8.82
2023-02-08T06:42:33.332Z,9.27
2023-02-08T06:45:02.014Z,8.32
2023-02-08T06:47:29.477Z,9.98
2023-02-08T06:49:56.879Z,12.07
2023-02-08T06:52:24.267Z,13.00
2023-02-08T06:54:51.639Z,13.30
2023-02-08T06:57:19.053Z,12.65
2023-02-08T06:59:46.443Z,12.23
2023-02-08T07:02:16.272Z,12.07
2023-02-08T07:04:43.802Z,12.43
2023-02-08T07:07:11.166Z,12.10
2023-02-08T07:09:38.609Z,12.57
2023-02-08T07:12:06.293Z,12.77
2023-02-08T07:14:34.224Z,11.75
2023-02-08T07:17:01.661Z,11.57
2023-02-08T07:19:30.479Z,11.05
2023-02-08T07:21:59.329Z,11.38
2023-02-08T07:24:26.724Z,10.80
2023-02-08T07:26:54.104Z,10.88
2023-02-08T07:29:21.535Z,15.30
2023-02-08T07:31:48.936Z,13.30
2023-02-08T07:34:21.638Z,12.57
2023-02-08T07:36:50.368Z,12.30
2023-02-08T07:39:17.752Z,12.65
2023-02-08T07:41:45.121Z,12.50
2023-02-08T07:44:12.498Z,12.32
2023-02-08T07:46:40.178Z,12.30
2023-02-08T07:49:07.655Z,11.93
2023-02-08T07:51:35.060Z,12.05
2023-02-08T07:54:03.756Z,11.32
2023-02-08T07:56:31.144Z,11.38
2023-02-08T07:58:58.544Z,11.23
2023-02-08T08:01:25.969Z,11.50
2023-02-08T08:03:53.754Z,10.82
2023-02-08T08:06:21.588Z,11.93
2023-02-08T08:08:49.011Z,11.45
2023-02-08T08:11:17.941Z,11.63
2023-02-08T08:13:45.330Z,11.23
2023-02-08T08:16:12.933Z,11.63
2023-02-08T08:18:40.588Z,11.20
2023-02-08T08:21:08.171Z,11.40
2023-02-08T08:23:36.047Z,11.70
2023-02-08T08:26:07.736Z,10.95
2023-02-08T08:28:36.665Z,11.60
2023-02-08T08:31:04.182Z,10.82
2023-02-08T08:33:31.627Z,11.07
2023-02-08T08:35:58.992Z,11.90
2023-02-08T08:38:26.377Z,11.65
2023-02-08T08:40:53.740Z,12.82
2023-02-08T08:43:21.117Z,11.93
2023-02-08T08:45:51.586Z,11.60
2023-02-08T08:48:20.278Z,11.93
2023-02-08T08:50:48.032Z,11.68
2023-02-08T08:53:15.457Z,11.80
2023-02-08T08:55:44.351Z,11.60
2023-02-08T09:00:40.605Z,11.02
2023-02-08T09:03:09.514Z,11.45
2023-02-08T09:05:37.008Z,10.95
2023-02-08T09:08:04.578Z,11.77
2023-02-08T09:10:31.962Z,11.52
2023-02-08T09:12:59.444Z,12.38
2023-02-08T09:15:26.840Z,11.55
2023-02-08T09:17:54.210Z,11.48
2023-02-08T09:20:23.856Z,11.25
2023-02-08T09:22:51.821Z,11.50
2023-02-08T09:25:19.208Z,11.40
2023-02-08T09:27:46.581Z,10.90
2023-02-08T09:30:14.186Z,12.25
2023-02-08T09:32:41.600Z,11.77
2023-02-08T09:35:09.348Z,11.88
2023-02-08T09:37:38.039Z,11.98
2023-02-08T09:40:06.164Z,12.00
2023-02-08T09:42:37.087Z,12.15
2023-02-08T09:45:25.379Z,12.48
2023-02-08T09:47:56.591Z,11.85
2023-02-08T09:50:26.115Z,12.55
2023-02-08T09:52:59.015Z,11.68
2023-02-08T09:55:28.633Z,12.35
2023-02-08T09:57:56.130Z,11.95
2023-02-08T10:00:26.503Z,11.88
2023-02-08T10:02:53.882Z,12.43
2023-02-08T10:05:22.148Z,12.23
2023-02-08T10:07:49.506Z,13.05
2023-02-08T10:10:21.406Z,12.40
2023-02-08T10:12:51.479Z,12.55
2023-02-08T10:15:26.599Z,13.25
2023-02-08T10:18:08.462Z,11.80
2023-02-08T10:20:45.849Z,12.27
2023-02-08T10:23:22.538Z,11.80
2023-02-08T10:26:09.606Z,12.55
2023-02-08T10:28:52.405Z,11.75
2023-02-08T10:31:23.508Z,11.65
2023-02-08T10:33:55.645Z,10.88
2023-02-08T10:36:25.253Z,10.75
2023-02-08T10:38:53.249Z,11.30
2023-02-08T10:41:24.260Z,10.95
2023-02-08T10:43:53.049Z,11.48
2023-02-08T10:46:23.423Z,10.38
2023-02-08T10:48:56.400Z,11.20
2023-02-08T10:51:23.810Z,10.85
2023-02-08T10:53:51.208Z,10.27
2023-02-08T10:56:38.392Z,9.55
2023-02-08T10:59:08.204Z,10.45
2023-02-08T11:01:35.576Z,9.85
2023-02-08T11:04:04.246Z,9.43
2023-02-08T11:06:31.662Z,9.57
2023-02-08T11:08:59.101Z,8.95
2023-02-08T11:11:29.648Z,8.52
2023-02-08T11:14:06.671Z,8.30
2023-02-08T11:16:34.123Z,8.90
2023-02-08T11:19:01.906Z,8.13
2023-02-08T11:21:33.092Z,8.55
2023-02-08T11:24:01.616Z,7.95
2023-02-08T11:26:34.755Z,7.90
2023-02-08T11:29:03.700Z,7.65
2023-02-08T11:31:32.046Z,7.40
2023-02-08T11:34:01.172Z,7.63
2023-02-08T11:36:30.821Z,7.63
2023-02-08T11:39:01.444Z,7.68
2023-02-08T11:41:28.812Z,6.88
2023-02-08T11:43:59.762Z,6.82
2023-02-08T11:46:28.352Z,6.82
2023-02-08T11:48:55.991Z,6.70
2023-02-08T11:51:28.547Z,6.38
2023-02-08T11:53:56.976Z,6.25
2023-02-08T11:56:24.769Z,6.28
2023-02-08T11:59:04.906Z,5.75
2023-02-08T12:04:01.068Z,5.50
2023-02-08T12:06:46.300Z,5.50
2023-02-08T12:09:20.676Z,5.45
2023-02-08T12:11:48.925Z,5.63
2023-02-08T12:14:28.068Z,5.13
2023-02-08T12:17:05.584Z,4.78
2023-02-08T12:20:00.610Z,4.75
2023-02-08T12:22:28.299Z,4.68
2023-02-08T12:24:59.636Z,4.75
2023-02-08T12:27:35.117Z,4.82
2023-02-08T12:30:08.244Z,4.47
2023-02-08T12:32:42.708Z,4.50
2023-02-08T12:35:36.988Z,4.30
2023-02-08T12:38:26.494Z,4.43
2023-02-08T12:40:57.195Z,4.53
2023-02-08T12:43:32.595Z,4.57
2023-02-08T12:46:07.212Z,4.03
2023-02-08T12:48:44.585Z,4.30
2023-02-08T12:51:16.720Z,3.88
2023-02-08T12:53:44.775Z,3.80
2023-02-08T12:56:14.198Z,4.00
2023-02-08T12:58:43.726Z,4.05
2023-02-08T13:01:14.915Z,3.92
2023-02-08T13:03:44.723Z,3.95
2023-02-08T13:06:15.299Z,3.97
2023-02-08T13:08:47.112Z,3.70
2023-02-08T13:11:20.037Z,3.75
2023-02-08T13:13:53.862Z,4.05
2023-02-08T13:16:24.238Z,3.63
2023-02-08T13:18:54.107Z,3.47
2023-02-08T13:21:23.331Z,3.47
2023-02-08T13:23:53.034Z,3.50
2023-02-08T13:26:22.910Z,3.47
2023-02-08T13:28:51.883Z,3.65
2023-02-08T13:31:20.999Z,3.60
2023-02-08T13:34:01.408Z,3.38
2023-02-08T13:36:30.786Z,3.47
2023-02-08T13:38:58.310Z,3.42
2023-02-08T13:41:26.376Z,3.60
2023-02-08T13:43:55.192Z,3.40
2023-02-08T13:46:23.191Z,3.30
2023-02-08T13:48:53.802Z,3.28
2023-02-08T13:51:51.289Z,3.35
2023-02-08T13:54:18.702Z,3.42
2023-02-08T13:56:46.365Z,3.30
2023-02-08T13:59:30.029Z,3.33
2023-02-08T14:02:26.790Z,3.25
2023-02-08T14:05:00.195Z,3.70
2023-02-08T14:07:30.051Z,3.55
2023-02-08T14:10:09.481Z,3.78
2023-02-08T14:12:40.448Z,3.53
2023-02-08T14:15:26.443Z,3.30
2023-02-08T14:17:58.150Z,3.50
2023-02-08T14:20:29.185Z,3.45
2023-02-08T14:22:57.698Z,3.28
2023-02-08T14:25:26.110Z,3.63
2023-02-08T14:27:54.250Z,3.45
2023-02-08T14:30:24.193Z,3.38
2023-02-08T14:32:52.330Z,3.42
2023-02-08T14:35:21.477Z,3.88
2023-02-08T14:37:53.845Z,3.50
2023-02-08T14:40:48.309Z,3.65
2023-02-08T14:43:34.336Z,3.05
2023-02-08T14:46:39.775Z,3.60
2023-02-08T14:49:09.495Z,3.40
2023-02-08T14:51:38.054Z,3.80
2023-02-08T14:54:12.022Z,3.47
2023-02-08T14:56:46.317Z,3.72
2023-02-08T14:59:15.363Z,3.35
2023-02-08T15:01:44.466Z,3.60
2023-02-08T15:04:12.381Z,3.88
2023-02-08T15:06:50.500Z,3.03
2023-02-08T15:09:20.932Z,3.42
2023-02-08T15:11:59.051Z,3.50
2023-02-08T15:14:26.426Z,3.35
2023-02-08T15:19:19.686Z,3.67
2023-02-08T15:21:47.070Z,3.45
2023-02-08T15:24:15.928Z,3.38
2023-02-08T15:26:47.742Z,3.72
2023-02-08T15:29:26.119Z,3.50
2023-02-08T15:31:57.554Z,3.60
2023-02-08T15:34:26.040Z,3.35
2023-02-08T15:36:53.916Z,3.30
2023-02-08T15:39:30.372Z,3.38
2023-02-08T15:41:59.695Z,3.65
2023-02-08T15:44:29.947Z,4.30
2023-02-08T15:46:58.186Z,3.17
2023-02-08T15:49:27.879Z,3.45
2023-02-08T15:51:56.850Z,3.60
2023-02-08T15:54:24.467Z,3.63
2023-02-08T15:56:53.461Z,3.75
2023-02-08T15:59:23.851Z,3.92
2023-02-08T16:01:51.236Z,4.50
2023-02-08T16:04:18.650Z,5.30
2023-02-08T16:06:47.623Z,5.20
2023-02-08T16:09:17.228Z,5.60
2023-02-08T16:11:49.062Z,6.20
2023-02-08T16:14:16.856Z,6.50
2023-02-08T16:16:48.398Z,6.72
2023-02-08T16:19:21.288Z,6.70
2023-02-08T16:21:48.670Z,6.60
2023-02-08T16:24:24.512Z,6.70
2023-02-08T16:27:01.109Z,6.47
2023-02-08T16:29:29.561Z,5.88
2023-02-08T16:32:03.301Z,6.32
2023-02-08T16:34:32.887Z,6.07
2023-02-08T16:37:00.284Z,6.35
2023-02-08T16:39:52.169Z,5.68
2023-02-08T16:42:31.407Z,5.68
2023-02-08T16:45:12.831Z,5.73
2023-02-08T16:47:42.180Z,5.57
2023-02-08T16:50:10.961Z,5.33
2023-02-08T16:52:38.363Z,5.35
2023-02-08T16:55:06.408Z,4.78
2023-02-08T16:57:43.330Z,5.60
2023-02-08T17:00:15.842Z,5.10
2023-02-08T17:02:44.569Z,5.05
2023-02-08T17:05:11.986Z,5.00
2023-02-08T17:07:39.363Z,4.95
2023-02-08T17:10:08.446Z,5.10
2023-02-08T17:12:35.830Z,5.00
2023-02-08T17:15:03.194Z,4.75
2023-02-08T17:17:30.583Z,5.55
2023-02-08T17:19:59.279Z,4.80
2023-02-08T17:22:26.689Z,5.60
2023-02-08T17:24:54.067Z,4.95
2023-02-08T17:27:21.463Z,5.25
2023-02-08T17:29:49.421Z,4.90
2023-02-08T17:32:18.153Z,5.30
2023-02-08T17:34:45.517Z,5.05
2023-02-08T17:37:14.412Z,5.28
2023-02-08T17:39:41.797Z,4.97
2023-02-08T17:42:11.548Z,4.95
2023-02-08T17:44:38.923Z,4.90
2023-02-08T17:47:06.616Z,4.40
2023-02-08T17:49:33.994Z,5.47
2023-02-08T17:52:01.362Z,5.32
2023-02-08T17:54:30.072Z,5.55
2023-02-08T17:56:58.552Z,5.35
2023-02-08T17:59:27.233Z,5.28
2023-02-08T18:01:54.658Z,5.50
2023-02-08T18:04:22.059Z,5.57
2023-02-08T18:06:49.632Z,5.75
2023-02-08T18:09:17.423Z,5.82
2023-02-08T18:11:46.704Z,6.20
2023-02-08T18:14:14.212Z,6.30
2023-02-08T18:16:41.607Z,6.82
2023-02-08T18:19:09.025Z,8.23
2023-02-08T18:21:36.433Z,8.68
2023-02-08T18:24:04.843Z,9.35
2023-02-08T18:26:34.378Z,8.63
2023-02-08T18:29:03.169Z,10.07
2023-02-08T18:31:30.606Z,9.80
2023-02-08T18:33:58.123Z,10.70
2023-02-08T18:36:25.547Z,10.60
2023-02-08T18:38:55.460Z,10.52
2023-02-08T18:41:23.938Z,11.23
2023-02-08T18:43:51.491Z,11.20
2023-02-08T18:46:21.253Z,11.40
2023-02-08T18:48:49.180Z,11.10
2023-02-08T18:51:19.484Z,11.82
2023-02-08T18:53:47.358Z,12.10
2023-02-08T18:56:14.904Z,11.40
2023-02-08T18:58:42.303Z,10.45
2023-02-08T19:01:11.026Z,11.35
2023-02-08T19:03:39.874Z,11.20
2023-02-08T19:06:09.028Z,10.75
2023-02-08T19:08:37.466Z,10.90
2023-02-08T19:11:05.141Z,10.27
2023-02-08T19:13:34.308Z,10.43
2023-02-08T19:16:01.720Z,10.30
2023-02-08T19:18:29.108Z,9.90
2023-02-08T19:21:05.915Z,9.73
2023-02-08T19:23:33.516Z,9.65
2023-02-08T19:26:02.369Z,9.55
2023-02-08T19:28:32.447Z,9.18
2023-02-08T19:31:04.097Z,8.57
2023-02-08T19:33:31.648Z,8.93
2023-02-08T19:36:06.412Z,9.70
2023-02-08T19:38:33.916Z,8.55
2023-02-08T19:41:01.315Z,8.77
2023-02-08T19:43:28.744Z,8.10
2023-02-08T19:45:56.230Z,8.88
2023-02-08T19:48:24.573Z,8.80
2023-02-08T19:50:55.817Z,9.25
2023-02-08T19:53:24.574Z,8.80
2023-02-08T19:55:56.083Z,9.05
2023-02-08T19:58:23.493Z,8.60
2023-02-08T20:00:51.194Z,8.00
2023-02-08T20:03:21.823Z,8.52
2023-02-08T20:05:50.060Z,8.85
2023-02-08T20:08:17.499Z,8.88
2023-02-08T20:10:47.353Z,8.50
2023-02-08T20:13:15.139Z,9.15
2023-02-08T20:15:43.569Z,9.32
2023-02-08T20:18:12.083Z,8.85
2023-02-08T20:20:39.471Z,9.38
2023-02-08T20:23:20.898Z,9.30
2023-02-08T20:25:51.304Z,9.55
2023-02-08T20:28:18.813Z,10.05
2023-02-08T20:30:46.348Z,10.55
2023-02-08T20:33:15.678Z,12.32
2023-02-08T20:35:43.468Z,13.48
2023-02-08T20:38:11.043Z,12.15
2023-02-08T20:40:38.471Z,13.23
2023-02-08T20:43:07.167Z,11.50
2023-02-08T20:45:34.604Z,11.55
2023-02-08T20:48:02.045Z,11.70
2023-02-08T20:50:30.788Z,11.00
2023-02-08T20:52:58.207Z,11.25
2023-02-08T20:55:25.660Z,10.85
2023-02-08T20:57:53.045Z,10.60
2023-02-08T21:00:25.848Z,11.13
2023-02-08T21:02:55.352Z,11.25
2023-02-08T21:05:22.712Z,11.15
2023-02-08T21:07:50.095Z,11.13
2023-02-08T21:10:17.693Z,10.95
2023-02-08T21:12:45.107Z,11.35
2023-02-08T21:15:12.546Z,11.30
2023-02-08T21:17:42.510Z,10.48
2023-02-08T21:20:11.923Z,10.93
2023-02-08T21:22:39.413Z,11.20
2023-02-08T21:25:07.486Z,10.73
2023-02-08T21:27:34.905Z,10.25
2023-02-08T21:30:02.337Z,10.38
2023-02-08T21:32:29.906Z,11.05
2023-02-08T21:34:58.663Z,10.57
2023-02-08T21:37:26.110Z,10.20
2023-02-08T21:39:53.537Z,10.70
2023-02-08T21:42:20.954Z,10.57
2023-02-08T21:44:48.374Z,10.05
2023-02-08T21:47:15.748Z,10.27
2023-02-08T21:50:00.923Z,10.68
2023-02-08T21:52:47.704Z,9.63
2023-02-08T21:55:15.185Z,9.57
2023-02-08T21:57:42.601Z,10.35
2023-02-08T22:00:13.882Z,10.32
2023-02-08T22:02:41.417Z,10.27
2023-02-08T22:05:08.920Z,9.95
2023-02-08T22:07:45.282Z,9.90
2023-02-08T22:10:13.358Z,9.90
2023-02-08T22:12:41.807Z,9.63
2023-02-08T22:15:09.849Z,9.57
2023-02-08T22:17:37.236Z,9.32
2023-02-08T22:20:05.070Z,8.90
2023-02-08T22:22:32.449Z,9.13
2023-02-08T22:25:01.187Z,8.77
2023-02-08T22:27:28.585Z,9.05
2023-02-08T22:29:55.970Z,9.23
2023-02-08T22:32:23.352Z,8.30
2023-02-08T22:34:50.732Z,8.30
2023-02-08T22:37:18.188Z,8.95
2023-02-08T22:39:45.547Z,8.13
2023-02-08T22:42:14.659Z,8.52
2023-02-08T22:44:43.121Z,8.00
2023-02-08T22:47:11.202Z,7.72
2023-02-08T22:49:38.834Z,8.07
2023-02-08T22:52:06.880Z,8.45
2023-02-08T22:54:34.377Z,7.57
2023-02-08T22:57:01.760Z,8.45
2023-02-08T22:59:30.493Z,8.32
2023-02-08T23:01:58.069Z,7.95
2023-02-08T23:04:25.516Z,7.90
2023-02-08T23:06:52.916Z,7.90
2023-02-08T23:09:20.470Z,7.50
2023-02-08T23:11:47.831Z,8.38
2023-02-08T23:14:15.552Z,7.40
2023-02-08T23:16:44.222Z,7.50
2023-02-08T23:19:14.092Z,7.07
2023-02-08T23:21:41.509Z,7.90
2023-02-08T23:24:08.942Z,7.85
2023-02-08T23:26:36.317Z,7.70
2023-02-08T23:29:03.835Z,7.60
2023-02-08T23:31:31.432Z,7.90
2023-02-08T23:34:00.611Z,7.38
2023-02-08T23:36:28.081Z,7.20
2023-02-08T23:38:55.499Z,7.38
2023-02-08T23:41:23.343Z,7.78
2023-02-08T23:43:51.215Z,7.15
2023-02-08T23:46:19.980Z,7.30
2023-02-08T23:48:47.776Z,7.70
2023-02-08T23:51:16.877Z,6.80
2023-02-08T23:53:44.425Z,6.78
2023-02-08T23:56:14.505Z,7.03
2023-02-08T23:58:42.081Z,7.20
